Pietro Novelli — IOTQ — position and weather

sailwx.info

Track history (hours):
 
Tides and Currents Weather Stations Pressure Air Temp Water Temp Dewpoint Dewpoint Depression Visibility Wind Speed Wind Dir Waves Ship Positions

Pietro Novelli

Last reported at 2016-May-01 03:23 UTC. Time now 2016-May-01 04:14 UTC.
Position N 38°01' E 012°30'.

Length 91 m; draft 3.7 m.

Type: Ship. MMSI: 247000300.

Date/timePositionNaut miles runAvg speedWind from/ knotsBaromVisibWave heightAir tempDewpointWater temp
2016-May-01 03:23N 38°01' E 012°30'0 0.0
2016-May-01 02:23N 38°01' E 012°30'0 0.0
2016-May-01 01:29N 38°01' E 012°30'0 0.0
2016-May-01 00:29N 38°01' E 012°30'0 0.0
2016-Apr-30 23:29N 38°01' E 012°30'0 0.0
2016-Apr-30 22:29N 38°01' E 012°30'0 0.0
2016-Apr-30 21:29N 38°01' E 012°30'0 0.0
2016-Apr-30 20:29N 38°01' E 012°30'0 0.0
2016-Apr-30 19:29N 38°01' E 012°30'0 0.0
2016-Apr-30 18:32N 38°01' E 012°30'0 0.0
2016-Apr-30 17:32N 38°01' E 012°30'0 0.0
2016-Apr-30 16:32N 38°01' E 012°30'2 2.1
2016-Apr-30 15:33N 37°60' E 012°28'1413.8
2016-Apr-30 14:33N 37°49' E 012°18'1413.7
2016-Apr-30 13:33N 37°36' E 012°10'13 0.9
2016-Apr-29 22:33N 37°47' E 012°20'1111.0
2016-Apr-29 21:33N 37°57' E 012°25'5 5.3
2016-Apr-29 20:33N 38°01' E 012°30'0 0.0
2016-Apr-29 19:33N 38°01' E 012°30'0 0.0
2016-Apr-29 18:33N 38°01' E 012°30'0 0.0
2016-Apr-29 17:33N 38°01' E 012°30'0 0.0
2016-Apr-29 16:33N 38°01' E 012°30'10 9.9
2016-Apr-29 15:33N 37°53' E 012°22'1312.4
2016-Apr-29 14:28N 37°42' E 012°13'7 0.5
2016-Apr-28 23:33N 37°36' E 012°18'1211.4
2016-Apr-28 22:32N 37°47' E 012°21'1111.4
2016-Apr-28 21:33N 37°57' E 012°26'5 5.0
2016-Apr-28 20:33N 38°01' E 012°30'0 0.0
2016-Apr-28 19:33N 38°01' E 012°30'0 0.0
2016-Apr-28 18:33N 38°01' E 012°30'0 0.0
2016-Apr-28 17:33N 38°01' E 012°30'0 0.0
2016-Apr-28 16:33N 38°01' E 012°30'0 0.0
2016-Apr-28 15:33N 38°01' E 012°30'0 0.0
2016-Apr-28 14:33N 38°01' E 012°30'7 6.7
2016-Apr-28 13:33N 37°56' E 012°24'1312.6
2016-Apr-28 12:33N 37°45' E 012°18'57 8.1
2016-Apr-28 05:32N 36°50' E 011°56'1 0.6
2016-Apr-28 04:08N 36°51' E 011°56'14 8.5
2016-Apr-28 02:29N 37°04' E 012°01'3811.4
2016-Apr-27 23:09N 37°40' E 012°17'812.1
2016-Apr-27 22:28N 37°48' E 012°20'1111.5
2016-Apr-27 21:33N 37°58' E 012°26'5 4.8
2016-Apr-27 20:33N 38°01' E 012°30'0 0.0
2016-Apr-27 19:33N 38°01' E 012°30'0 0.0
2016-Apr-27 18:33N 38°01' E 012°30'0 0.0
2016-Apr-27 17:33N 38°01' E 012°30'0 0.0
2016-Apr-27 16:33N 38°01' E 012°30'0 0.0
2016-Apr-27 15:33N 38°01' E 012°30'0 0.0
2016-Apr-27 14:33N 38°01' E 012°30'3 2.5
2016-Apr-27 13:33N 37°59' E 012°28'1312.7
2016-Apr-27 12:33N 37°49' E 012°19'1 0.1
2016-Apr-26 22:33N 37°47' E 012°20'1111.2
2016-Apr-26 21:33N 37°58' E 012°26'5 4.8
2016-Apr-26 20:33N 38°01' E 012°30'0 0.0
2016-Apr-26 19:33N 38°01' E 012°30'0 0.1
2016-Apr-26 18:33N 38°01' E 012°30'1211.6
2016-Apr-26 17:33N 37°52' E 012°21'1312.5
2016-Apr-26 16:33N 37°42' E 012°11'5 0.5
2016-Apr-26 07:09N 37°41' E 012°17'813.0
2016-Apr-26 06:32N 37°49' E 012°20'1212.4
2016-Apr-26 05:33N 37°59' E 012°28'  
2016-Apr-24 00:23N 38°01' E 012°30'0 0.0
2016-Apr-23 23:29N 38°01' E 012°30'0 0.0
2016-Apr-23 22:27N 38°01' E 012°30'0 0.0
2016-Apr-23 21:15N 38°01' E 012°30'0 0.0
2016-Apr-23 20:30N 38°01' E 012°30'0 0.0
2016-Apr-23 19:24N 38°01' E 012°30'0 0.0
2016-Apr-23 18:33N 38°01' E 012°30'0 0.0
2016-Apr-23 17:33N 38°01' E 012°30'0 0.0
2016-Apr-23 16:33N 38°01' E 012°30'8 7.7
2016-Apr-23 15:33N 37°55' E 012°23'1312.7
2016-Apr-23 14:33N 37°44' E 012°17'35 2.9
2016-Apr-23 02:20N 37°10' E 012°04'810.4
2016-Apr-23 01:33N 37°18' E 012°08'1010.3
2016-Apr-23 00:33N 37°28' E 012°11'1110.2
2016-Apr-22 23:30N 37°38' E 012°15'1110.8
2016-Apr-22 22:29N 37°48' E 012°20'1111.7
2016-Apr-22 21:33N 37°58' E 012°26'5 4.6
2016-Apr-22 20:33N 38°01' E 012°30'0 0.0
2016-Apr-22 19:33N 38°01' E 012°30'0 0.0
2016-Apr-22 18:33N 38°01' E 012°30'0 0.0
2016-Apr-22 17:33N 38°01' E 012°30'0 0.0
2016-Apr-22 16:33N 38°01' E 012°30'6 5.9
2016-Apr-22 15:33N 37°57' E 012°25'1312.6
2016-Apr-22 14:33N 37°45' E 012°18'1412.7
2016-Apr-22 13:29N 37°33' E 012°12'1312.9
2016-Apr-22 12:27N 37°20' E 012°06'1212.9
2016-Apr-22 11:32N 37°09' E 012°02'1413.1
2016-Apr-22 10:29N 36°56' E 011°58'54 4.6
2016-Apr-21 22:33N 37°47' E 012°20'1211.9
2016-Apr-21 21:33N 37°58' E 012°26'4 4.4
2016-Apr-21 20:33N 38°01' E 012°30'0 0.0
2016-Apr-21 19:33N 38°01' E 012°30'0 0.0
2016-Apr-21 18:33N 38°01' E 012°30'0 0.0
2016-Apr-21 17:33N 38°01' E 012°30'0 0.0
2016-Apr-21 16:33N 38°01' E 012°30'0 0.0
2016-Apr-21 15:33N 38°01' E 012°30'0 0.0
2016-Apr-21 14:33N 38°01' E 012°30'6 5.5
2016-Apr-21 13:32N 37°57' E 012°25'1212.7
2016-Apr-21 12:33N 37°46' E 012°18'  
Track history (hours):
 
Tides and Currents Weather Stations Pressure Air Temp Water Temp Dewpoint Dewpoint Depression Visibility Wind Speed Wind Dir Waves Ship Positions

Pietro Novelli

Last reported at 2016-May-01 03:23 UTC. Time now 2016-May-01 04:14 UTC.
Position N 38°01' E 012°30'.

Length 91 m; draft 3.7 m.

Type: Ship. MMSI: 247000300.

Date/timePositionNaut miles runAvg speedWind from/ knotsBaromVisibWave heightAir tempDewpointWater temp
2016-May-01 03:23N 38°01' E 012°30'0 0.0
2016-May-01 02:23N 38°01' E 012°30'0 0.0
2016-May-01 01:29N 38°01' E 012°30'0 0.0
2016-May-01 00:29N 38°01' E 012°30'0 0.0
2016-Apr-30 23:29N 38°01' E 012°30'0 0.0
2016-Apr-30 22:29N 38°01' E 012°30'0 0.0
2016-Apr-30 21:29N 38°01' E 012°30'0 0.0
2016-Apr-30 20:29N 38°01' E 012°30'0 0.0
2016-Apr-30 19:29N 38°01' E 012°30'0 0.0
2016-Apr-30 18:32N 38°01' E 012°30'0 0.0
2016-Apr-30 17:32N 38°01' E 012°30'0 0.0
2016-Apr-30 16:32N 38°01' E 012°30'2 2.1
2016-Apr-30 15:33N 37°60' E 012°28'1413.8
2016-Apr-30 14:33N 37°49' E 012°18'1413.7
2016-Apr-30 13:33N 37°36' E 012°10'13 0.9
2016-Apr-29 22:33N 37°47' E 012°20'1111.0
2016-Apr-29 21:33N 37°57' E 012°25'5 5.3
2016-Apr-29 20:33N 38°01' E 012°30'0 0.0
2016-Apr-29 19:33N 38°01' E 012°30'0 0.0
2016-Apr-29 18:33N 38°01' E 012°30'0 0.0
2016-Apr-29 17:33N 38°01' E 012°30'0 0.0
2016-Apr-29 16:33N 38°01' E 012°30'10 9.9
2016-Apr-29 15:33N 37°53' E 012°22'1312.4
2016-Apr-29 14:28N 37°42' E 012°13'7 0.5
2016-Apr-28 23:33N 37°36' E 012°18'1211.4
2016-Apr-28 22:32N 37°47' E 012°21'1111.4
2016-Apr-28 21:33N 37°57' E 012°26'5 5.0
2016-Apr-28 20:33N 38°01' E 012°30'0 0.0
2016-Apr-28 19:33N 38°01' E 012°30'0 0.0
2016-Apr-28 18:33N 38°01' E 012°30'0 0.0
2016-Apr-28 17:33N 38°01' E 012°30'0 0.0
2016-Apr-28 16:33N 38°01' E 012°30'0 0.0
2016-Apr-28 15:33N 38°01' E 012°30'0 0.0
2016-Apr-28 14:33N 38°01' E 012°30'7 6.7
2016-Apr-28 13:33N 37°56' E 012°24'1312.6
2016-Apr-28 12:33N 37°45' E 012°18'57 8.1
2016-Apr-28 05:32N 36°50' E 011°56'1 0.6
2016-Apr-28 04:08N 36°51' E 011°56'14 8.5
2016-Apr-28 02:29N 37°04' E 012°01'3811.4
2016-Apr-27 23:09N 37°40' E 012°17'812.1
2016-Apr-27 22:28N 37°48' E 012°20'1111.5
2016-Apr-27 21:33N 37°58' E 012°26'5 4.8
2016-Apr-27 20:33N 38°01' E 012°30'0 0.0
2016-Apr-27 19:33N 38°01' E 012°30'0 0.0
2016-Apr-27 18:33N 38°01' E 012°30'0 0.0
2016-Apr-27 17:33N 38°01' E 012°30'0 0.0
2016-Apr-27 16:33N 38°01' E 012°30'0 0.0
2016-Apr-27 15:33N 38°01' E 012°30'0 0.0
2016-Apr-27 14:33N 38°01' E 012°30'3 2.5
2016-Apr-27 13:33N 37°59' E 012°28'1312.7
2016-Apr-27 12:33N 37°49' E 012°19'1 0.1
2016-Apr-26 22:33N 37°47' E 012°20'1111.2
2016-Apr-26 21:33N 37°58' E 012°26'5 4.8
2016-Apr-26 20:33N 38°01' E 012°30'0 0.0
2016-Apr-26 19:33N 38°01' E 012°30'0 0.1
2016-Apr-26 18:33N 38°01' E 012°30'1211.6
2016-Apr-26 17:33N 37°52' E 012°21'1312.5
2016-Apr-26 16:33N 37°42' E 012°11'5 0.5
2016-Apr-26 07:09N 37°41' E 012°17'813.0
2016-Apr-26 06:32N 37°49' E 012°20'1212.4
2016-Apr-26 05:33N 37°59' E 012°28'  
2016-Apr-24 00:23N 38°01' E 012°30'0 0.0
2016-Apr-23 23:29N 38°01' E 012°30'0 0.0
2016-Apr-23 22:27N 38°01' E 012°30'0 0.0
2016-Apr-23 21:15N 38°01' E 012°30'0 0.0
2016-Apr-23 20:30N 38°01' E 012°30'0 0.0
2016-Apr-23 19:24N 38°01' E 012°30'0 0.0
2016-Apr-23 18:33N 38°01' E 012°30'0 0.0
2016-Apr-23 17:33N 38°01' E 012°30'0 0.0
2016-Apr-23 16:33N 38°01' E 012°30'8 7.7
2016-Apr-23 15:33N 37°55' E 012°23'1312.7
2016-Apr-23 14:33N 37°44' E 012°17'35 2.9
2016-Apr-23 02:20N 37°10' E 012°04'810.4
2016-Apr-23 01:33N 37°18' E 012°08'1010.3
2016-Apr-23 00:33N 37°28' E 012°11'1110.2
2016-Apr-22 23:30N 37°38' E 012°15'1110.8
2016-Apr-22 22:29N 37°48' E 012°20'1111.7
2016-Apr-22 21:33N 37°58' E 012°26'5 4.6
2016-Apr-22 20:33N 38°01' E 012°30'0 0.0
2016-Apr-22 19:33N 38°01' E 012°30'0 0.0
2016-Apr-22 18:33N 38°01' E 012°30'0 0.0
2016-Apr-22 17:33N 38°01' E 012°30'0 0.0
2016-Apr-22 16:33N 38°01' E 012°30'6 5.9
2016-Apr-22 15:33N 37°57' E 012°25'1312.6
2016-Apr-22 14:33N 37°45' E 012°18'1412.7
2016-Apr-22 13:29N 37°33' E 012°12'1312.9
2016-Apr-22 12:27N 37°20' E 012°06'1212.9
2016-Apr-22 11:32N 37°09' E 012°02'1413.1
2016-Apr-22 10:29N 36°56' E 011°58'54 4.6
2016-Apr-21 22:33N 37°47' E 012°20'1211.9
2016-Apr-21 21:33N 37°58' E 012°26'4 4.4
2016-Apr-21 20:33N 38°01' E 012°30'0 0.0
2016-Apr-21 19:33N 38°01' E 012°30'0 0.0
2016-Apr-21 18:33N 38°01' E 012°30'0 0.0
2016-Apr-21 17:33N 38°01' E 012°30'0 0.0
2016-Apr-21 16:33N 38°01' E 012°30'0 0.0
2016-Apr-21 15:33N 38°01' E 012°30'0 0.0
2016-Apr-21 14:33N 38°01' E 012°30'6 5.5
2016-Apr-21 13:32N 37°57' E 012°25'1212.7
2016-Apr-21 12:33N 37°46' E 012°18'  

Dump ship's entire track history